createdAt,value
2023-03-27T00:01:22.177Z,0.73
2023-03-27T00:03:50.644Z,1.50
2023-03-27T00:06:19.135Z,3.30
2023-03-27T00:08:51.051Z,1.00
2023-03-27T00:11:18.724Z,1.43
2023-03-27T00:13:49.302Z,1.83
2023-03-27T00:16:23.665Z,1.23
2023-03-27T00:18:50.364Z,1.00
2023-03-27T00:21:16.886Z,0.93
2023-03-27T00:23:43.368Z,2.03
2023-03-27T00:26:11.857Z,0.87
2023-03-27T00:28:38.589Z,1.23
2023-03-27T00:31:11.546Z,0.90
2023-03-27T00:33:38.315Z,0.70
2023-03-27T00:36:05.207Z,2.03
2023-03-27T00:38:32.212Z,1.03
2023-03-27T00:40:58.832Z,2.50
2023-03-27T00:43:41.046Z,1.67
2023-03-27T00:46:44.863Z,0.87
2023-03-27T00:49:14.487Z,1.77
2023-03-27T00:51:44.108Z,1.10
2023-03-27T00:54:13.179Z,2.40
2023-03-27T00:56:39.784Z,2.43
2023-03-27T00:59:12.473Z,0.80
2023-03-27T01:01:40.086Z,1.40
2023-03-27T01:04:08.995Z,1.43
2023-03-27T01:06:36.771Z,2.90
2023-03-27T01:09:04.575Z,3.20
2023-03-27T01:11:53.067Z,1.07
2023-03-27T01:14:46.730Z,1.27
2023-03-27T01:17:32.413Z,1.03
2023-03-27T01:20:20.231Z,2.83
2023-03-27T01:23:11.835Z,2.13
2023-03-27T01:26:04.340Z,1.00
2023-03-27T01:28:44.192Z,2.90
2023-03-27T01:31:29.571Z,11.70
2023-03-27T01:34:02.098Z,1.93
2023-03-27T01:36:43.454Z,2.10
2023-03-27T01:39:57.977Z,2.60
2023-03-27T01:42:41.351Z,0.80
2023-03-27T01:45:15.774Z,1.27
2023-03-27T01:47:51.621Z,2.33
2023-03-27T01:50:23.789Z,0.80
2023-03-27T01:52:56.228Z,0.93
2023-03-27T01:55:29.126Z,0.80
2023-03-27T01:58:05.084Z,1.20
2023-03-27T02:00:51.936Z,1.80
2023-03-27T02:03:28.966Z,1.80
2023-03-27T02:06:08.631Z,0.80
2023-03-27T02:08:46.531Z,1.53
2023-03-27T02:11:23.488Z,1.00
2023-03-27T02:14:03.747Z,2.10
2023-03-27T02:16:35.632Z,0.80
2023-03-27T02:19:12.690Z,1.07
2023-03-27T02:21:39.183Z,2.13
2023-03-27T02:24:06.488Z,2.83
2023-03-27T02:26:33.850Z,0.90
2023-03-27T02:29:23.735Z,0.90
2023-03-27T02:32:35.185Z,1.00
2023-03-27T02:35:22.794Z,1.20
2023-03-27T02:38:08.327Z,1.30
2023-03-27T02:40:44.649Z,1.47
2023-03-27T02:43:46.924Z,1.00
2023-03-27T02:46:31.888Z,1.90
2023-03-27T02:49:04.606Z,1.43
2023-03-27T02:51:37.290Z,2.70
2023-03-27T02:54:12.906Z,1.70
2023-03-27T02:56:47.459Z,1.00
2023-03-27T02:59:35.581Z,1.47
2023-03-27T03:02:09.465Z,1.00
2023-03-27T03:04:57.021Z,1.00
2023-03-27T03:07:28.698Z,1.40
2023-03-27T03:09:55.319Z,4.63
2023-03-27T03:12:22.006Z,1.00
2023-03-27T03:14:48.567Z,1.00
2023-03-27T03:17:16.309Z,1.23
2023-03-27T03:19:44.823Z,1.30
2023-03-27T03:22:11.346Z,1.93
2023-03-27T03:24:42.373Z,1.40
2023-03-27T03:27:10.873Z,2.20
2023-03-27T03:29:47.378Z,1.40
2023-03-27T03:32:20.632Z,1.30
2023-03-27T03:34:50.606Z,1.10
2023-03-27T03:37:17.457Z,2.27
2023-03-27T03:39:44.031Z,1.20
2023-03-27T03:42:10.645Z,1.53
2023-03-27T03:44:51.109Z,3.83
2023-03-27T03:47:19.768Z,1.10
2023-03-27T03:49:47.361Z,1.73
2023-03-27T03:52:14.703Z,1.37
2023-03-27T03:54:41.446Z,2.03
2023-03-27T03:57:08.748Z,1.63
2023-03-27T03:59:35.654Z,1.30
2023-03-27T04:02:28.845Z,1.00
2023-03-27T04:05:10.593Z,1.00
2023-03-27T04:07:39.989Z,1.90
2023-03-27T04:10:26.646Z,1.43
2023-03-27T04:12:53.497Z,2.27
2023-03-27T04:15:27.090Z,1.20
2023-03-27T04:18:04.165Z,2.10
2023-03-27T04:20:34.594Z,3.10
2023-03-27T04:23:03.832Z,2.17
2023-03-27T04:25:34.869Z,3.30
2023-03-27T04:28:04.268Z,3.30
2023-03-27T04:30:37.081Z,1.70
2023-03-27T04:33:22.876Z,1.97
2023-03-27T04:36:16.425Z,2.10
2023-03-27T04:39:02.204Z,1.70
2023-03-27T04:41:29.590Z,2.90
2023-03-27T04:43:56.156Z,1.47
2023-03-27T04:46:23.257Z,2.10
2023-03-27T04:48:56.370Z,1.80
2023-03-27T04:51:42.370Z,2.00
2023-03-27T04:54:10.310Z,1.63
2023-03-27T04:56:42.198Z,0.80
2023-03-27T04:59:08.896Z,0.80
2023-03-27T05:01:36.092Z,2.30
2023-03-27T05:04:27.200Z,1.17
2023-03-27T05:07:12.077Z,1.20
2023-03-27T05:09:38.680Z,1.10
2023-03-27T05:12:06.708Z,1.00
2023-03-27T05:14:40.150Z,1.10
2023-03-27T05:17:16.052Z,0.80
2023-03-27T05:19:44.808Z,0.93
2023-03-27T05:22:13.813Z,0.80
2023-03-27T05:24:49.196Z,1.20
2023-03-27T05:27:15.670Z,1.10
2023-03-27T05:29:47.345Z,2.33
2023-03-27T05:32:14.850Z,1.10
2023-03-27T05:35:04.362Z,0.90
2023-03-27T05:37:37.324Z,0.90
2023-03-27T05:40:28.237Z,0.90
2023-03-27T05:42:56.375Z,2.43
2023-03-27T05:45:26.893Z,1.10
2023-03-27T05:47:56.002Z,2.97
2023-03-27T05:50:26.397Z,6.63
2023-03-27T05:53:02.950Z,1.03
2023-03-27T05:55:37.097Z,3.47
2023-03-27T05:58:06.029Z,2.03
2023-03-27T06:00:34.343Z,1.30
2023-03-27T06:03:02.986Z,1.30
2023-03-27T06:05:48.869Z,1.37
2023-03-27T06:08:15.665Z,1.60
2023-03-27T06:10:44.088Z,1.77
2023-03-27T06:13:24.058Z,2.10
2023-03-27T06:15:56.345Z,2.60
2023-03-27T06:18:42.297Z,4.63
2023-03-27T06:21:10.703Z,2.13
2023-03-27T06:23:37.656Z,1.60
2023-03-27T06:26:10.086Z,1.30
2023-03-27T06:28:36.790Z,2.03
2023-03-27T06:31:03.989Z,2.27
2023-03-27T06:33:40.392Z,1.73
2023-03-27T06:36:15.869Z,1.40
2023-03-27T06:38:43.910Z,1.07
2023-03-27T06:41:10.497Z,1.10
2023-03-27T06:43:57.587Z,1.00
2023-03-27T06:46:45.916Z,1.27
2023-03-27T06:49:32.854Z,1.73
2023-03-27T06:52:05.761Z,1.73
2023-03-27T06:54:32.289Z,1.30
2023-03-27T06:57:01.234Z,1.03
2023-03-27T06:59:36.188Z,1.57
2023-03-27T07:02:03.675Z,2.30
2023-03-27T07:04:33.857Z,1.73
2023-03-27T07:07:11.080Z,1.30
2023-03-27T07:09:41.151Z,1.00
2023-03-27T07:12:09.404Z,1.43
2023-03-27T07:14:38.008Z,1.43
2023-03-27T07:17:05.352Z,0.90
2023-03-27T07:20:03.916Z,0.80
2023-03-27T07:22:31.055Z,1.03
2023-03-27T07:25:04.791Z,1.10
2023-03-27T07:27:37.512Z,1.10
2023-03-27T07:30:07.874Z,1.50
2023-03-27T07:32:38.203Z,1.20
2023-03-27T07:35:08.526Z,0.90
2023-03-27T07:37:54.532Z,1.10
2023-03-27T07:40:40.175Z,1.03
2023-03-27T07:43:27.388Z,1.53
2023-03-27T07:45:54.127Z,1.10
2023-03-27T07:48:21.583Z,1.20
2023-03-27T07:50:48.056Z,2.50
2023-03-27T07:53:32.457Z,2.80
2023-03-27T07:56:06.092Z,1.90
2023-03-27T07:58:32.693Z,2.97
2023-03-27T08:01:01.895Z,2.97
2023-03-27T08:03:31.819Z,3.47
2023-03-27T08:06:00.106Z,6.30
2023-03-27T08:08:29.755Z,9.90
2023-03-27T08:10:58.075Z,4.00
2023-03-27T08:13:29.014Z,9.23
2023-03-27T08:16:04.865Z,6.47
2023-03-27T08:18:31.349Z,9.60
2023-03-27T08:20:58.438Z,5.57
2023-03-27T08:23:27.304Z,19.07
2023-03-27T08:26:14.463Z,8.03
2023-03-27T08:28:47.925Z,10.13
2023-03-27T08:31:16.256Z,6.10
2023-03-27T08:33:44.335Z,11.80
2023-03-27T08:36:16.298Z,6.63
2023-03-27T08:38:43.282Z,7.70
2023-03-27T08:41:33.087Z,3.90
2023-03-27T08:44:31.865Z,4.83
2023-03-27T08:47:34.036Z,5.30
2023-03-27T08:50:41.179Z,5.97
2023-03-27T08:53:35.461Z,11.47
2023-03-27T08:56:04.936Z,10.47
2023-03-27T08:58:38.016Z,9.83
2023-03-27T09:01:44.953Z,9.07
2023-03-27T09:04:38.727Z,10.57
2023-03-27T09:07:18.695Z,15.50
2023-03-27T09:10:25.577Z,16.27
2023-03-27T09:13:04.805Z,24.47
2023-03-27T09:15:44.868Z,13.80
2023-03-27T09:18:30.982Z,12.27
2023-03-27T09:21:17.792Z,12.93
2023-03-27T09:23:46.377Z,20.00
2023-03-27T09:26:34.671Z,19.70
2023-03-27T09:29:20.266Z,15.87
2023-03-27T09:31:53.131Z,13.07
2023-03-27T09:34:29.718Z,21.63
2023-03-27T09:36:59.163Z,13.80
2023-03-27T09:39:32.461Z,14.90
2023-03-27T09:42:26.320Z,13.90
2023-03-27T09:44:56.869Z,14.87
2023-03-27T09:47:33.328Z,14.80
2023-03-27T09:50:22.267Z,14.30
2023-03-27T09:53:17.388Z,12.63
2023-03-27T09:55:55.554Z,13.10
2023-03-27T09:58:27.846Z,9.60
2023-03-27T10:01:16.062Z,16.03
2023-03-27T10:03:56.027Z,10.17
2023-03-27T10:06:39.260Z,16.73
2023-03-27T10:09:32.086Z,7.87
2023-03-27T10:12:19.539Z,6.47
2023-03-27T10:14:52.689Z,20.80
2023-03-27T10:17:40.674Z,10.07
2023-03-27T10:20:15.945Z,10.80
2023-03-27T10:22:54.917Z,12.50
2023-03-27T10:25:38.778Z,19.10
2023-03-27T10:28:24.657Z,10.87
2023-03-27T10:31:34.099Z,11.03
2023-03-27T10:34:08.134Z,8.80
2023-03-27T10:37:20.435Z,8.27
2023-03-27T10:39:53.084Z,5.23
2023-03-27T10:42:32.703Z,10.97
2023-03-27T10:45:00.176Z,8.07
2023-03-27T10:47:33.776Z,10.17
2023-03-27T10:50:09.871Z,11.03
2023-03-27T10:53:19.583Z,7.93
2023-03-27T10:56:10.950Z,8.30
2023-03-27T10:58:52.084Z,9.70
2023-03-27T11:01:40.606Z,7.60
2023-03-27T11:04:58.282Z,6.63
2023-03-27T11:07:33.786Z,6.77
2023-03-27T11:10:06.396Z,8.83
2023-03-27T11:12:36.719Z,6.53
2023-03-27T11:15:22.384Z,9.50
2023-03-27T11:18:29.051Z,5.23
2023-03-27T11:21:04.548Z,6.43
2023-03-27T11:24:03.892Z,4.70
2023-03-27T11:27:03.506Z,8.73
2023-03-27T11:29:35.871Z,8.37
2023-03-27T11:32:50.207Z,5.30
2023-03-27T11:35:24.646Z,8.03
2023-03-27T11:38:19.319Z,4.37
2023-03-27T11:40:47.884Z,7.13
2023-03-27T11:43:16.734Z,4.80
2023-03-27T11:46:02.355Z,8.60
2023-03-27T11:49:00.536Z,8.80
2023-03-27T11:51:47.887Z,4.70
2023-03-27T11:54:40.584Z,5.30
2023-03-27T11:57:23.589Z,12.37
2023-03-27T12:00:33.840Z,6.53
2023-03-27T12:03:28.676Z,10.93
2023-03-27T12:06:22.496Z,5.80
2023-03-27T12:09:03.044Z,3.50
2023-03-27T12:11:47.816Z,5.87
2023-03-27T12:14:40.568Z,3.50
2023-03-27T12:17:36.653Z,4.00
2023-03-27T12:20:23.908Z,10.50
2023-03-27T12:23:12.568Z,18.83
2023-03-27T12:25:49.578Z,6.53
2023-03-27T12:28:49.817Z,3.53
2023-03-27T12:31:54.980Z,14.67
2023-03-27T12:35:06.330Z,12.00
2023-03-27T12:37:48.950Z,2.87
2023-03-27T12:40:59.135Z,7.53
2023-03-27T12:43:33.632Z,7.60
2023-03-27T12:46:24.272Z,1.73
2023-03-27T12:49:02.519Z,7.90
2023-03-27T12:51:38.894Z,7.43
2023-03-27T12:54:13.482Z,2.70
2023-03-27T12:56:41.123Z,5.70
2023-03-27T12:59:20.397Z,2.90
2023-03-27T13:02:03.466Z,2.40
2023-03-27T13:05:08.603Z,2.50
2023-03-27T13:07:50.009Z,3.43
2023-03-27T13:11:16.192Z,4.83
2023-03-27T13:14:13.095Z,2.50
2023-03-27T13:17:14.878Z,2.57
2023-03-27T13:19:47.708Z,4.13
2023-03-27T13:23:03.212Z,1.20
2023-03-27T13:25:48.968Z,6.40
2023-03-27T13:28:39.157Z,2.10
2023-03-27T13:31:12.145Z,4.93
2023-03-27T13:34:21.754Z,1.60
2023-03-27T13:37:06.681Z,4.53
2023-03-27T13:39:48.123Z,2.07
2023-03-27T13:42:22.588Z,5.03
2023-03-27T13:45:04.577Z,3.27
2023-03-27T13:47:58.923Z,4.10
2023-03-27T13:51:00.625Z,2.03
2023-03-27T13:53:49.458Z,7.17
2023-03-27T13:57:07.284Z,3.40
2023-03-27T14:00:24.692Z,1.10
2023-03-27T14:03:10.781Z,2.97
2023-03-27T14:06:20.231Z,3.27
2023-03-27T14:09:10.881Z,3.30
2023-03-27T14:12:19.725Z,1.77
2023-03-27T14:15:14.233Z,1.83
2023-03-27T14:17:53.101Z,3.83
2023-03-27T14:20:26.568Z,1.80
2023-03-27T14:23:03.312Z,2.27
2023-03-27T14:25:47.637Z,1.47
2023-03-27T14:28:49.263Z,2.60
2023-03-27T14:31:19.243Z,1.90
2023-03-27T14:34:13.288Z,2.00
2023-03-27T14:36:42.471Z,2.07
2023-03-27T14:39:25.058Z,2.50
2023-03-27T14:42:01.513Z,1.87
2023-03-27T14:44:32.450Z,2.70
2023-03-27T14:47:08.240Z,2.50
2023-03-27T14:49:48.917Z,3.83
2023-03-27T14:52:24.988Z,2.80
2023-03-27T14:55:29.796Z,2.10
2023-03-27T14:58:18.535Z,13.30
2023-03-27T15:00:57.947Z,2.67
2023-03-27T15:03:30.324Z,5.10
2023-03-27T15:06:04.435Z,2.00
2023-03-27T15:08:39.956Z,8.60
2023-03-27T15:11:19.762Z,3.13
2023-03-27T15:14:20.564Z,4.23
2023-03-27T15:17:01.483Z,5.60
2023-03-27T15:19:34.877Z,8.33
2023-03-27T15:22:14.688Z,2.50
2023-03-27T15:24:50.820Z,3.60
2023-03-27T15:27:26.845Z,1.80
2023-03-27T15:30:02.711Z,1.77
2023-03-27T15:32:42.208Z,4.00
2023-03-27T15:35:15.618Z,5.23
2023-03-27T15:37:42.812Z,2.90
2023-03-27T15:40:31.168Z,4.07
2023-03-27T15:43:02.337Z,4.53
2023-03-27T15:45:53.106Z,1.70
2023-03-27T15:48:21.132Z,5.97
2023-03-27T15:50:54.269Z,3.53
2023-03-27T15:53:45.167Z,4.97
2023-03-27T15:56:36.991Z,1.63
2023-03-27T15:59:09.262Z,2.33
2023-03-27T16:01:42.046Z,5.10
2023-03-27T16:04:14.106Z,4.27
2023-03-27T16:06:44.945Z,4.33
2023-03-27T16:09:35.224Z,4.37
2023-03-27T16:12:01.928Z,1.70
2023-03-27T16:14:29.959Z,4.50
2023-03-27T16:17:09.951Z,8.63
2023-03-27T16:19:56.433Z,7.00
2023-03-27T16:22:33.939Z,7.53
2023-03-27T16:25:01.654Z,2.37
2023-03-27T16:27:33.862Z,2.23
2023-03-27T16:30:00.439Z,2.60
2023-03-27T16:32:26.933Z,4.40
2023-03-27T16:34:53.493Z,4.53
2023-03-27T16:37:22.979Z,1.87
2023-03-27T16:39:49.995Z,6.10
2023-03-27T16:42:19.214Z,7.40
2023-03-27T16:44:46.460Z,3.20
2023-03-27T16:47:14.351Z,1.63
2023-03-27T16:49:41.194Z,5.13
2023-03-27T16:52:08.372Z,4.10
2023-03-27T16:54:35.094Z,5.20
2023-03-27T16:57:01.625Z,3.97
2023-03-27T16:59:28.374Z,3.73
2023-03-27T17:01:55.782Z,5.43
2023-03-27T17:04:22.989Z,4.30
2023-03-27T17:06:49.844Z,6.60
2023-03-27T17:09:16.286Z,5.00
2023-03-27T17:11:43.191Z,3.03
2023-03-27T17:14:10.030Z,5.13
2023-03-27T17:16:36.586Z,5.10
2023-03-27T17:19:03.163Z,4.30
2023-03-27T17:21:29.709Z,5.80
2023-03-27T17:23:58.005Z,4.10
2023-03-27T17:26:29.530Z,3.67
2023-03-27T17:28:56.710Z,10.77
2023-03-27T17:31:23.827Z,4.80
2023-03-27T17:33:50.589Z,4.13
2023-03-27T17:36:26.840Z,11.23
2023-03-27T17:39:05.754Z,3.70
2023-03-27T17:41:32.647Z,14.10
2023-03-27T17:43:59.386Z,2.63
2023-03-27T17:46:26.033Z,2.77
2023-03-27T17:48:52.676Z,2.90
2023-03-27T17:51:19.153Z,2.33
2023-03-27T17:53:45.828Z,1.57
2023-03-27T17:56:12.274Z,2.80
2023-03-27T17:58:38.768Z,3.43
2023-03-27T18:01:16.346Z,2.67
2023-03-27T18:03:43.020Z,5.70
2023-03-27T18:06:09.632Z,3.40
2023-03-27T18:08:36.466Z,4.07
2023-03-27T18:11:07.708Z,3.97
2023-03-27T18:13:34.473Z,2.33
2023-03-27T18:16:04.296Z,2.97
2023-03-27T18:18:32.941Z,4.27
2023-03-27T18:20:59.727Z,3.47
2023-03-27T18:23:27.110Z,1.90
2023-03-27T18:25:55.227Z,6.70
2023-03-27T18:28:22.297Z,5.53
2023-03-27T18:30:58.009Z,8.73
2023-03-27T18:33:24.635Z,10.40
2023-03-27T18:35:56.763Z,3.60
2023-03-27T18:38:25.023Z,3.73
2023-03-27T18:40:52.231Z,6.20
2023-03-27T18:43:18.722Z,7.43
2023-03-27T18:45:45.231Z,6.70
2023-03-27T18:48:11.762Z,2.43
2023-03-27T18:50:38.247Z,3.60
2023-03-27T18:53:05.385Z,8.60
2023-03-27T18:55:32.374Z,4.37
2023-03-27T18:57:58.839Z,7.13
2023-03-27T19:00:25.392Z,4.47
2023-03-27T19:02:51.975Z,5.20
2023-03-27T19:05:18.958Z,10.13
2023-03-27T19:07:45.761Z,5.70
2023-03-27T19:10:13.920Z,7.30
2023-03-27T19:12:43.963Z,5.23
2023-03-27T19:15:30.972Z,3.87
2023-03-27T19:17:57.680Z,4.00
2023-03-27T19:21:01.332Z,5.40
2023-03-27T19:23:47.633Z,4.90
2023-03-27T19:26:17.552Z,10.73
2023-03-27T19:28:47.804Z,4.90
2023-03-27T19:31:14.759Z,4.80
2023-03-27T19:33:41.858Z,4.77
2023-03-27T19:36:09.862Z,4.10
2023-03-27T19:38:37.413Z,6.77
2023-03-27T19:41:08.046Z,4.00
2023-03-27T19:43:34.784Z,4.57
2023-03-27T19:46:14.894Z,3.80
2023-03-27T19:48:44.492Z,2.47
2023-03-27T19:51:19.884Z,7.97
2023-03-27T19:53:49.894Z,3.57
2023-03-27T19:56:19.866Z,10.03
2023-03-27T19:58:46.315Z,3.60
2023-03-27T20:01:12.763Z,5.43
2023-03-27T20:03:39.931Z,7.67
2023-03-27T20:06:13.264Z,3.30
2023-03-27T20:08:42.260Z,3.33
2023-03-27T20:11:12.631Z,3.90
2023-03-27T20:13:53.027Z,5.77
2023-03-27T20:16:26.071Z,3.30
2023-03-27T20:19:03.648Z,6.63
2023-03-27T20:21:36.108Z,2.40
2023-03-27T20:24:09.594Z,4.70
2023-03-27T20:26:41.446Z,3.20
2023-03-27T20:29:17.013Z,2.10
2023-03-27T20:31:45.043Z,3.60
2023-03-27T20:34:12.215Z,5.53
2023-03-27T20:36:39.178Z,7.83
2023-03-27T20:39:29.373Z,3.73
2023-03-27T20:41:59.068Z,4.43
2023-03-27T20:44:35.843Z,5.53
2023-03-27T20:47:03.520Z,2.90
2023-03-27T20:49:40.783Z,7.10
2023-03-27T20:52:11.313Z,3.30
2023-03-27T20:54:37.788Z,3.23
2023-03-27T20:57:04.736Z,3.60
2023-03-27T20:59:31.391Z,7.60
2023-03-27T21:01:59.121Z,8.30
2023-03-27T21:04:28.212Z,4.63
2023-03-27T21:06:55.374Z,5.23
2023-03-27T21:09:23.087Z,7.93
2023-03-27T21:11:54.436Z,10.23
2023-03-27T21:14:21.025Z,5.90
2023-03-27T21:16:47.709Z,6.10
2023-03-27T21:19:14.187Z,5.20
2023-03-27T21:21:40.941Z,8.40
2023-03-27T21:24:08.056Z,13.13
2023-03-27T21:26:35.282Z,2.83
2023-03-27T21:29:03.222Z,4.90
2023-03-27T21:31:29.967Z,12.70
2023-03-27T21:33:56.623Z,7.43
2023-03-27T21:36:23.428Z,9.50
2023-03-27T21:38:49.973Z,8.10
2023-03-27T21:41:17.178Z,3.47
2023-03-27T21:43:44.480Z,7.57
2023-03-27T21:46:11.140Z,5.10
2023-03-27T21:48:40.371Z,5.47
2023-03-27T21:51:08.650Z,11.13
2023-03-27T21:53:35.763Z,10.07
2023-03-27T21:56:02.442Z,11.03
2023-03-27T21:58:29.097Z,6.40
2023-03-27T22:00:57.418Z,6.03
2023-03-27T22:03:25.029Z,8.93
2023-03-27T22:06:07.682Z,3.70
2023-03-27T22:08:38.636Z,4.97
2023-03-27T22:11:05.626Z,4.83
2023-03-27T22:13:33.924Z,5.10
2023-03-27T22:16:00.745Z,6.40
2023-03-27T22:18:27.463Z,3.50
2023-03-27T22:20:54.073Z,1.73
2023-03-27T22:23:20.506Z,4.90
2023-03-27T22:25:55.052Z,7.47
2023-03-27T22:28:21.545Z,8.73
2023-03-27T22:30:48.269Z,3.47
2023-03-27T22:33:14.852Z,5.23
2023-03-27T22:35:47.709Z,7.00
2023-03-27T22:38:14.614Z,3.33
2023-03-27T22:40:41.049Z,4.07
2023-03-27T22:43:07.634Z,8.37
2023-03-27T22:45:37.068Z,5.17
2023-03-27T22:48:05.597Z,4.47
2023-03-27T22:50:32.259Z,4.57
2023-03-27T22:52:58.682Z,5.00
2023-03-27T22:55:25.384Z,4.87
2023-03-27T22:57:51.927Z,3.60
2023-03-27T23:00:18.889Z,11.33
2023-03-27T23:02:45.394Z,4.33
2023-03-27T23:05:11.986Z,5.63
2023-03-27T23:07:38.485Z,5.87
2023-03-27T23:10:05.458Z,6.07
2023-03-27T23:12:31.908Z,4.13
2023-03-27T23:14:58.352Z,6.23
2023-03-27T23:17:24.857Z,6.27
2023-03-27T23:19:51.526Z,7.13
2023-03-27T23:22:17.953Z,5.10
2023-03-27T23:24:45.022Z,6.90
2023-03-27T23:27:12.736Z,4.87
2023-03-27T23:29:39.225Z,3.03
2023-03-27T23:32:05.882Z,8.60
2023-03-27T23:34:32.359Z,4.60
2023-03-27T23:36:59.746Z,8.20
2023-03-27T23:39:26.287Z,4.50
2023-03-27T23:41:52.713Z,10.40
2023-03-27T23:44:19.186Z,5.77
2023-03-27T23:46:45.778Z,8.60
2023-03-27T23:49:13.182Z,5.30
2023-03-27T23:51:39.622Z,4.10
2023-03-27T23:54:06.117Z,6.83
2023-03-27T23:56:32.554Z,5.10
2023-03-27T23:58:59.168Z,6.30
